createdAt,value
2023-04-19T00:00:14.627Z,10.10
2023-04-19T00:02:42.751Z,10.00
2023-04-19T00:05:12.124Z,9.90
2023-04-19T00:07:39.254Z,10.00
2023-04-19T00:10:07.220Z,9.90
2023-04-19T00:12:34.096Z,9.90
2023-04-19T00:15:01.137Z,9.90
2023-04-19T00:17:28.095Z,9.90
2023-04-19T00:19:54.994Z,10.00
2023-04-19T00:22:21.875Z,10.00
2023-04-19T00:24:48.795Z,10.00
2023-04-19T00:27:15.819Z,10.00
2023-04-19T00:29:42.747Z,9.90
2023-04-19T00:32:09.670Z,9.80
2023-04-19T00:34:36.938Z,9.70
2023-04-19T00:37:06.824Z,9.70
2023-04-19T00:39:33.897Z,9.60
2023-04-19T00:42:01.436Z,9.40
2023-04-19T00:44:28.666Z,9.40
2023-04-19T00:46:57.215Z,9.30
2023-04-19T00:49:24.856Z,9.30
2023-04-19T00:51:51.998Z,9.20
2023-04-19T00:54:20.398Z,8.90
2023-04-19T05:02:24.164Z,5.50
2023-04-19T05:04:51.237Z,5.30
2023-04-19T05:07:18.160Z,5.30
2023-04-19T05:09:45.475Z,5.40
2023-04-19T05:12:12.310Z,5.40
2023-04-19T05:14:39.260Z,5.30
2023-04-19T05:17:07.223Z,5.40
2023-04-19T05:19:34.160Z,5.70
2023-04-19T05:22:01.172Z,5.60
2023-04-19T05:24:28.147Z,5.30
2023-04-19T05:26:54.999Z,5.40
2023-04-19T05:29:21.832Z,5.50
2023-04-19T05:31:48.898Z,5.40
2023-04-19T05:34:16.307Z,5.60
2023-04-19T05:36:43.689Z,5.60
2023-04-19T05:39:10.622Z,5.70
2023-04-19T05:41:37.500Z,5.60
2023-04-19T05:44:04.533Z,5.70
2023-04-19T05:46:31.869Z,5.90
2023-04-19T05:48:58.948Z,6.00
2023-04-19T05:51:25.850Z,5.90
2023-04-19T05:53:55.180Z,5.80
2023-04-19T05:56:24.107Z,5.90
2023-04-19T05:58:50.989Z,5.80
2023-04-19T06:01:18.080Z,5.80
2023-04-19T06:03:45.204Z,5.80
2023-04-19T06:06:12.657Z,5.70
2023-04-19T06:08:39.605Z,5.80
2023-04-19T06:11:15.761Z,5.90
2023-04-19T06:13:51.812Z,5.90
2023-04-19T06:16:19.056Z,6.00
2023-04-19T06:18:46.054Z,5.80
2023-04-19T06:21:12.937Z,5.90
2023-04-19T06:23:39.795Z,6.00
2023-04-19T06:26:06.746Z,6.10
2023-04-19T06:28:33.623Z,5.80
2023-04-19T06:31:00.541Z,5.80
2023-04-19T06:33:27.383Z,5.80
2023-04-19T06:35:54.248Z,5.80
2023-04-19T06:38:21.356Z,5.90
2023-04-19T06:40:48.216Z,6.00
2023-04-19T06:43:15.217Z,6.00
2023-04-19T06:45:42.107Z,6.10
2023-04-19T06:48:09.290Z,6.10
2023-04-19T06:50:36.296Z,6.20
2023-04-19T06:53:04.868Z,6.30
2023-04-19T06:55:32.097Z,6.50
2023-04-19T06:57:59.044Z,6.50
2023-04-19T07:00:26.432Z,6.60
2023-04-19T07:02:53.472Z,6.50
2023-04-19T07:05:20.504Z,6.50
2023-04-19T07:07:47.451Z,6.40
2023-04-19T07:10:14.400Z,6.60
2023-04-19T07:12:41.304Z,6.60
2023-04-19T07:15:08.811Z,6.70
2023-04-19T07:17:38.540Z,6.90
2023-04-19T07:20:06.657Z,6.90
2023-04-19T07:22:33.814Z,7.00
2023-04-19T07:25:00.877Z,7.20
2023-04-19T07:27:27.812Z,7.10
2023-04-19T07:29:54.684Z,7.10
2023-04-19T07:32:21.648Z,7.10
2023-04-19T07:34:48.580Z,7.00
2023-04-19T07:37:15.442Z,7.00
2023-04-19T07:39:42.326Z,6.90
2023-04-19T07:42:09.283Z,6.80
2023-04-19T07:44:36.411Z,6.80
2023-04-19T07:47:05.691Z,6.90
2023-04-19T07:49:34.421Z,7.00
2023-04-19T07:52:02.063Z,7.10
2023-04-19T07:54:30.325Z,7.20
2023-04-19T07:56:59.094Z,7.30
2023-04-19T07:59:26.130Z,7.20
2023-04-19T08:01:53.329Z,7.40
2023-04-19T08:04:21.265Z,7.30
2023-04-19T08:06:48.417Z,7.40
2023-04-19T08:09:15.387Z,7.50
2023-04-19T08:11:43.366Z,7.70
2023-04-19T08:14:22.340Z,7.80
2023-04-19T08:17:22.132Z,7.90
2023-04-19T08:19:44.067Z,8.10
2023-04-19T08:22:11.366Z,8.20
2023-04-19T08:24:38.299Z,8.20
2023-04-19T08:27:05.164Z,8.30
2023-04-19T08:29:33.619Z,8.50
2023-04-19T08:32:01.823Z,8.50
2023-04-19T08:34:28.997Z,8.70
2023-04-19T08:37:03.896Z,8.70
2023-04-19T08:39:34.136Z,8.70
2023-04-19T08:42:18.079Z,8.90
2023-04-19T08:45:23.363Z,8.90
2023-04-19T08:47:56.806Z,9.10
2023-04-19T08:50:33.664Z,9.30
2023-04-19T08:53:23.799Z,9.50
2023-04-19T08:58:44.544Z,9.70
2023-04-19T09:01:26.677Z,9.80
2023-04-19T09:04:16.192Z,9.90
2023-04-19T09:06:48.400Z,10.10
2023-04-19T09:11:49.880Z,10.30
2023-04-19T09:14:20.345Z,10.40
2023-04-19T09:16:47.577Z,10.60
2023-04-19T09:19:24.198Z,10.60
2023-04-19T09:21:54.564Z,10.80
2023-04-19T09:25:14.505Z,10.80
2023-04-19T09:27:31.514Z,11.00
2023-04-19T09:30:03.014Z,11.10
2023-04-19T09:32:45.133Z,11.20
2023-04-19T09:35:12.046Z,11.20
2023-04-19T09:38:01.974Z,11.30
2023-04-19T09:40:28.801Z,11.50
2023-04-19T09:45:44.974Z,11.70
2023-04-19T09:48:13.002Z,11.80
2023-04-19T09:51:05.713Z,11.80
2023-04-19T09:53:39.444Z,11.90
2023-04-19T09:56:07.386Z,12.00
2023-04-19T10:03:35.887Z,12.50
2023-04-19T10:06:14.124Z,12.50
2023-04-19T10:08:49.874Z,12.60
2023-04-19T10:11:17.643Z,12.90
2023-04-19T10:13:46.947Z,12.90
2023-04-19T10:16:19.529Z,12.70
2023-04-19T10:18:50.588Z,12.80
2023-04-19T10:21:19.271Z,12.90
2023-04-19T10:23:47.173Z,13.30
2023-04-19T10:26:14.086Z,13.40
2023-04-19T10:28:42.609Z,13.30
2023-04-19T10:31:16.417Z,13.40
2023-04-19T10:33:43.403Z,13.80
2023-04-19T10:36:14.188Z,14.10
2023-04-19T10:38:44.738Z,14.30
2023-04-19T10:41:14.417Z,14.60
2023-04-19T10:44:10.277Z,14.50
2023-04-19T10:49:24.020Z,14.30
2023-04-19T10:51:55.064Z,14.80
2023-04-19T10:54:29.472Z,15.10
2023-04-19T10:57:07.575Z,15.50
2023-04-19T10:59:36.671Z,15.60
2023-04-19T11:02:32.731Z,15.20
2023-04-19T11:05:00.804Z,15.20
2023-04-19T11:07:28.057Z,15.50
2023-04-19T11:09:55.012Z,15.90
2023-04-19T11:12:22.185Z,16.10
2023-04-19T11:14:54.595Z,16.40
2023-04-19T11:17:27.803Z,17.00
2023-04-19T11:19:59.170Z,16.80
2023-04-19T11:22:33.034Z,16.90
2023-04-19T11:25:12.445Z,17.30
2023-04-19T11:27:41.463Z,17.70
2023-04-19T11:30:14.284Z,18.10
2023-04-19T11:32:54.956Z,18.20
2023-04-19T11:35:24.055Z,18.60
2023-04-19T11:37:51.788Z,19.00
2023-04-19T11:40:20.138Z,19.50
2023-04-19T11:42:47.637Z,19.60
2023-04-19T11:45:30.282Z,19.90
2023-04-19T11:47:59.678Z,20.20
2023-04-19T11:50:46.694Z,20.10
2023-04-19T11:53:21.180Z,20.20
2023-04-19T11:56:05.125Z,20.60
2023-04-19T11:58:48.251Z,21.00
2023-04-19T12:01:22.563Z,21.60
2023-04-19T12:03:51.384Z,22.10
2023-04-19T12:06:26.938Z,22.10
2023-04-19T12:08:55.467Z,21.80
2023-04-19T12:11:24.453Z,22.40
2023-04-19T12:14:11.220Z,22.70
2023-04-19T12:16:38.847Z,23.00
2023-04-19T12:19:20.491Z,23.80
2023-04-19T12:21:47.923Z,24.10
2023-04-19T12:24:17.999Z,25.00
2023-04-19T12:27:04.221Z,25.30
2023-04-19T12:29:31.679Z,26.00
2023-04-19T12:31:58.684Z,26.10
2023-04-19T12:34:25.762Z,26.40
2023-04-19T12:36:52.625Z,27.40
2023-04-19T12:39:19.753Z,28.10
2023-04-19T12:41:48.823Z,28.60
2023-04-19T12:44:16.465Z,29.60
2023-04-19T12:46:43.336Z,29.50
2023-04-19T12:49:10.271Z,29.60
2023-04-19T12:51:37.232Z,29.30
2023-04-19T12:54:04.281Z,29.60
2023-04-19T12:56:31.234Z,30.30
2023-04-19T12:58:58.100Z,30.50
2023-04-19T13:01:25.004Z,31.00
2023-04-19T13:03:52.114Z,31.00
2023-04-19T13:06:19.298Z,31.70
2023-04-19T13:08:47.975Z,32.20
2023-04-19T13:11:16.114Z,33.10
2023-04-19T13:13:43.197Z,33.20
2023-04-19T13:16:10.179Z,33.40
2023-04-19T13:18:37.113Z,33.10
2023-04-19T13:21:06.023Z,33.60
2023-04-19T13:23:34.241Z,32.90
2023-04-19T13:26:08.712Z,33.60
2023-04-19T13:28:36.096Z,33.80
2023-04-19T13:31:04.833Z,34.70
2023-04-19T13:33:31.813Z,34.80
2023-04-19T13:35:58.802Z,34.50
2023-04-19T13:38:25.742Z,33.70
2023-04-19T13:40:52.698Z,33.40
2023-04-19T13:43:19.767Z,33.80
2023-04-19T13:45:46.695Z,34.40
2023-04-19T13:48:13.652Z,34.60
2023-04-19T13:50:40.598Z,34.80
2023-04-19T13:53:07.538Z,34.60
2023-04-19T13:55:34.810Z,33.80
2023-04-19T13:58:01.901Z,34.40
2023-04-19T14:00:28.963Z,34.30
2023-04-19T14:02:56.999Z,34.40
2023-04-19T14:05:24.195Z,34.60
2023-04-19T14:07:51.157Z,34.40
2023-04-19T14:10:18.177Z,34.60
2023-04-19T14:12:45.234Z,34.70
2023-04-19T14:15:13.079Z,35.00
2023-04-19T14:17:40.016Z,33.50
2023-04-19T14:20:07.729Z,33.30
2023-04-19T14:22:35.588Z,33.70
2023-04-19T14:25:04.024Z,34.90
2023-04-19T14:28:01.745Z,34.40
2023-04-19T14:30:44.387Z,34.90
2023-04-19T14:33:11.520Z,35.30
2023-04-19T14:35:38.372Z,34.30
2023-04-19T14:38:05.219Z,33.20
2023-04-19T14:40:32.111Z,34.50
2023-04-19T14:42:59.150Z,35.50
2023-04-19T14:45:27.511Z,35.70
2023-04-19T14:47:54.386Z,34.10
2023-04-19T14:50:21.792Z,33.90
2023-04-19T14:52:48.885Z,33.30
2023-04-19T14:55:15.759Z,33.70
2023-04-19T14:57:42.688Z,33.00
2023-04-19T15:00:10.250Z,33.30
2023-04-19T15:02:37.664Z,33.40
2023-04-19T15:05:05.393Z,33.60
2023-04-19T15:07:32.450Z,32.80
2023-04-19T15:09:59.552Z,32.90
2023-04-19T15:12:26.500Z,32.50
2023-04-19T15:14:53.350Z,31.90
2023-04-19T15:17:20.228Z,30.80
2023-04-19T15:19:47.196Z,29.10
2023-04-19T15:22:14.101Z,29.70
2023-04-19T15:24:41.006Z,30.30
2023-04-19T15:27:08.828Z,29.80
2023-04-19T15:29:36.402Z,30.50
2023-04-19T15:32:04.745Z,30.00
2023-04-19T15:34:31.697Z,29.50
2023-04-19T15:36:58.879Z,29.50
2023-04-19T15:39:26.045Z,29.50
2023-04-19T15:41:53.052Z,29.40
2023-04-19T15:44:20.165Z,29.00
2023-04-19T15:46:47.261Z,28.90
2023-04-19T15:49:14.351Z,28.80
2023-04-19T15:51:41.538Z,28.70
2023-04-19T15:54:09.645Z,29.40
2023-04-19T15:56:37.039Z,29.60
2023-04-19T15:59:04.090Z,29.50
2023-04-19T16:01:31.022Z,29.60
2023-04-19T16:03:59.262Z,30.10
2023-04-19T16:06:27.993Z,29.20
2023-04-19T16:08:54.892Z,28.30
2023-04-19T16:11:21.832Z,28.60
2023-04-19T16:13:49.311Z,28.50
2023-04-19T16:16:16.311Z,28.50
2023-04-19T16:18:43.376Z,28.50
2023-04-19T16:21:10.895Z,29.10
2023-04-19T16:23:38.201Z,29.20
2023-04-19T16:26:05.270Z,29.80
2023-04-19T16:28:32.218Z,29.50
2023-04-19T16:30:59.086Z,29.00
2023-04-19T16:33:25.968Z,28.90
2023-04-19T16:35:52.881Z,28.80
2023-04-19T16:38:19.739Z,28.90
2023-04-19T16:40:48.792Z,29.10
2023-04-19T16:43:15.790Z,29.00
2023-04-19T16:45:43.045Z,28.90
2023-04-19T16:48:10.588Z,28.90
2023-04-19T16:50:37.542Z,28.90
2023-04-19T16:53:04.512Z,28.80
2023-04-19T16:55:31.437Z,28.20
2023-04-19T16:58:01.929Z,28.20
2023-04-19T17:00:28.960Z,27.60
2023-04-19T17:02:56.145Z,27.30
2023-04-19T17:05:23.935Z,27.20
2023-04-19T17:07:52.380Z,26.90
2023-04-19T17:10:20.416Z,26.40
2023-04-19T17:12:47.433Z,26.30
2023-04-19T17:15:14.337Z,25.70
2023-04-19T17:17:42.905Z,25.20
2023-04-19T17:20:10.255Z,25.30
2023-04-19T17:22:37.272Z,25.40
2023-04-19T17:25:04.773Z,25.50
2023-04-19T17:27:31.920Z,24.90
2023-04-19T17:29:59.770Z,25.30
2023-04-19T17:32:26.865Z,25.10
2023-04-19T17:34:53.910Z,24.90
2023-04-19T17:37:21.084Z,24.60
2023-04-19T17:39:48.009Z,24.70
2023-04-19T17:42:14.904Z,24.70
2023-04-19T17:44:41.775Z,24.60
2023-04-19T17:47:08.708Z,24.40
2023-04-19T17:49:35.586Z,24.20
2023-04-19T17:52:02.511Z,24.10
2023-04-19T17:54:29.396Z,23.90
2023-04-19T17:56:59.690Z,23.70
2023-04-19T17:59:26.661Z,23.40
2023-04-19T18:01:53.683Z,23.50
2023-04-19T18:04:21.427Z,23.30
2023-04-19T18:06:48.903Z,23.00
2023-04-19T18:09:18.174Z,22.80
2023-04-19T18:11:45.438Z,22.80
2023-04-19T18:14:12.563Z,22.30
2023-04-19T18:16:39.497Z,22.20
2023-04-19T18:19:06.513Z,22.00
2023-04-19T18:21:33.642Z,21.90
2023-04-19T18:24:00.575Z,21.50
2023-04-19T18:26:38.166Z,20.80
2023-04-19T18:29:05.124Z,20.40
2023-04-19T18:31:32.088Z,19.80
2023-04-19T18:33:59.317Z,19.50
2023-04-19T18:36:26.768Z,19.50
2023-04-19T18:38:53.814Z,19.30
2023-04-19T18:41:21.290Z,19.20
2023-04-19T18:44:12.875Z,18.70
2023-04-19T18:46:35.098Z,18.60
2023-04-19T18:49:01.998Z,18.20
2023-04-19T18:51:28.975Z,18.20
2023-04-19T18:53:55.897Z,17.70
2023-04-19T18:56:56.184Z,17.70
2023-04-19T18:59:10.888Z,17.70
2023-04-19T19:01:37.995Z,17.70
2023-04-19T19:06:35.280Z,17.70
2023-04-19T19:09:02.212Z,17.60
2023-04-19T19:14:04.103Z,17.40
2023-04-19T19:16:31.790Z,17.20
2023-04-19T19:18:58.727Z,17.20
2023-04-19T19:21:27.432Z,16.80
2023-04-19T19:23:57.747Z,16.80
2023-04-19T19:26:25.181Z,16.50
2023-04-19T19:28:52.838Z,16.20
2023-04-19T19:31:20.276Z,16.20
2023-04-19T19:33:57.041Z,16.30
2023-04-19T19:36:34.940Z,16.10
2023-04-19T19:39:01.830Z,16.00
2023-04-19T19:42:03.626Z,15.50
2023-04-19T19:44:15.454Z,14.80
2023-04-19T19:46:42.345Z,14.70
2023-04-19T19:49:12.805Z,14.70
2023-04-19T19:51:56.596Z,14.80
2023-04-19T19:54:24.928Z,14.80
2023-04-19T19:59:29.140Z,14.80
2023-04-19T20:01:57.381Z,14.70
2023-04-19T20:04:24.637Z,14.60
2023-04-19T20:09:22.021Z,14.60
2023-04-19T20:11:48.996Z,14.50
2023-04-19T20:14:17.688Z,14.20
2023-04-19T20:16:44.739Z,14.30
2023-04-19T20:19:11.694Z,14.40
2023-04-19T20:21:38.565Z,14.40
2023-04-19T20:24:06.241Z,14.50
2023-04-19T20:26:33.980Z,14.40
2023-04-19T20:29:01.492Z,14.20
2023-04-19T20:31:30.287Z,14.00
2023-04-19T20:33:57.320Z,13.80
2023-04-19T20:36:24.746Z,13.70
2023-04-19T20:38:51.696Z,13.70
2023-04-19T20:41:19.034Z,13.70
2023-04-19T20:43:45.914Z,13.70
2023-04-19T20:46:12.917Z,13.60
2023-04-19T20:48:39.866Z,13.50
2023-04-19T20:51:06.739Z,13.30
2023-04-19T20:53:34.130Z,13.30
2023-04-19T20:56:02.861Z,13.30
2023-04-19T20:58:33.388Z,13.30
2023-04-19T21:01:00.836Z,13.10
2023-04-19T21:03:27.917Z,13.00
2023-04-19T21:05:54.924Z,12.90
2023-04-19T21:08:23.408Z,12.80
2023-04-19T21:10:50.735Z,12.70
2023-04-19T21:13:17.720Z,12.50
2023-04-19T21:15:44.797Z,12.50
2023-04-19T21:18:11.777Z,12.60
2023-04-19T21:20:39.518Z,12.70
2023-04-19T21:23:07.695Z,12.70
2023-04-19T21:25:34.875Z,12.80
2023-04-19T21:28:01.974Z,12.90
2023-04-19T21:30:29.346Z,12.90
2023-04-19T21:32:56.320Z,12.60
2023-04-19T21:35:23.367Z,12.60
2023-04-19T21:37:50.618Z,12.60
2023-04-19T21:40:17.593Z,12.30
2023-04-19T21:42:44.534Z,12.10
2023-04-19T21:45:11.754Z,12.00
2023-04-19T21:47:38.735Z,11.90
2023-04-19T21:50:06.402Z,11.90
2023-04-19T21:52:33.295Z,11.80
2023-04-19T21:55:00.263Z,11.70
2023-04-19T21:57:27.273Z,11.60
2023-04-19T21:59:54.325Z,11.60
2023-04-19T22:02:21.382Z,11.80
2023-04-19T22:04:49.305Z,11.80
2023-04-19T22:07:18.841Z,11.70
2023-04-19T22:09:46.464Z,11.60
2023-04-19T22:12:13.693Z,11.80
2023-04-19T22:14:40.895Z,11.90
2023-04-19T22:17:09.082Z,11.90
2023-04-19T22:19:36.129Z,11.80
2023-04-19T22:22:03.101Z,11.80
2023-04-19T22:24:29.949Z,11.80
2023-04-19T22:26:57.340Z,11.60
2023-04-19T22:29:24.353Z,11.30
2023-04-19T22:31:51.384Z,11.20
2023-04-19T22:34:18.288Z,11.10
2023-04-19T22:36:45.433Z,11.10
2023-04-19T22:39:12.377Z,11.00
2023-04-19T22:41:39.300Z,11.10
2023-04-19T22:44:08.669Z,11.10
2023-04-19T22:46:37.044Z,11.20
2023-04-19T22:49:04.020Z,11.20
2023-04-19T22:51:30.916Z,11.30
2023-04-19T22:53:58.171Z,11.40
2023-04-19T22:56:25.148Z,11.40
2023-04-19T22:58:52.005Z,11.50
2023-04-19T23:01:18.952Z,11.60
2023-04-19T23:03:45.929Z,11.70
2023-04-19T23:06:12.858Z,11.70
2023-04-19T23:08:40.458Z,11.60
2023-04-19T23:11:10.106Z,11.50
2023-04-19T23:13:41.814Z,11.70
2023-04-19T23:16:11.040Z,11.80
2023-04-19T23:18:41.007Z,11.80
2023-04-19T23:21:08.051Z,11.90
2023-04-19T23:23:35.010Z,11.90
2023-04-19T23:26:01.900Z,11.90
2023-04-19T23:28:32.710Z,11.90
2023-04-19T23:30:59.625Z,11.80
2023-04-19T23:33:26.600Z,11.70
2023-04-19T23:35:53.584Z,11.60
2023-04-19T23:38:20.941Z,11.70
2023-04-19T23:40:47.900Z,11.90
2023-04-19T23:43:14.884Z,12.00
2023-04-19T23:45:41.758Z,12.00
2023-04-19T23:48:08.719Z,12.10
2023-04-19T23:50:35.783Z,11.90
2023-04-19T23:53:04.441Z,11.90
2023-04-19T23:55:31.535Z,11.90
2023-04-19T23:57:58.523Z,11.90
